Time;durP1;ratioP1;P1;durP2;ratioP2;P2;SDS_P1;SDS_P2;PMS_P1;PMS_P2;Temp;Humidity;BMP_temperature;BMP_pressure;BME280_temperature;BME280_humidity;BME280_pressure;Samples;Min_cycle;Max_cycle;Signal;HPM_P1;HPM_P2
2024/01/05 00:01:24;;;;;;;6.60;5.13;;;;;;;;;;5071141;28;20441;-48
2024/01/05 00:03:50;;;;;;;7.43;4.83;;;;;;;;;;5070972;28;20628;-48
2024/01/05 00:06:16;;;;;;;6.50;5.33;;;;;;;;;;5074044;28;20441;-48
2024/01/05 00:08:42;;;;;;;6.50;5.27;;;;;;;;;;5074877;28;20645;-48
2024/01/05 00:11:08;;;;;;;8.37;5.00;;;;;;;;;;5074509;28;20247;-47
2024/01/05 00:13:34;;;;;;;7.00;4.87;;;;;;;;;;5074859;28;20191;-47
2024/01/05 00:16:00;;;;;;;6.77;4.90;;;;;;;;;;5074701;28;20230;-47
2024/01/05 00:18:28;;;;;;;5.80;4.67;;;;;;;;;;5074448;28;20306;-47
2024/01/05 00:20:54;;;;;;;5.03;4.53;;;;;;;;;;5074558;28;20456;-48
2024/01/05 00:23:20;;;;;;;7.40;5.67;;;;;;;;;;5074675;28;20438;-47
2024/01/05 00:25:46;;;;;;;6.03;5.30;;;;;;;;;;5074393;28;20566;-47
2024/01/05 00:28:12;;;;;;;5.80;4.93;;;;;;;;;;5072618;28;20434;-46
2024/01/05 00:30:38;;;;;;;5.83;5.23;;;;;;;;;;5072899;28;20200;-47
2024/01/05 00:33:04;;;;;;;6.97;5.50;;;;;;;;;;5074382;28;20517;-47
2024/01/05 00:35:31;;;;;;;7.73;5.87;;;;;;;;;;5074512;28;20227;-47
2024/01/05 00:37:57;;;;;;;7.23;5.73;;;;;;;;;;5074641;28;20430;-47
2024/01/05 00:40:23;;;;;;;7.60;5.53;;;;;;;;;;5074520;28;20820;-46
2024/01/05 00:42:49;;;;;;;8.77;5.60;;;;;;;;;;5074355;28;20313;-46
2024/01/05 00:45:15;;;;;;;9.87;5.73;;;;;;;;;;5074580;28;20287;-47
2024/01/05 00:47:41;;;;;;;5.87;5.30;;;;;;;;;;5074515;28;20265;-47
2024/01/05 00:50:07;;;;;;;6.53;5.53;;;;;;;;;;5074202;28;20192;-46
2024/01/05 00:52:35;;;;;;;8.13;5.53;;;;;;;;;;5074450;28;20226;-46
2024/01/05 00:55:01;;;;;;;6.30;5.60;;;;;;;;;;5074062;28;20998;-46
2024/01/05 00:57:28;;;;;;;7.20;5.97;;;;;;;;;;5074429;28;20422;-47
2024/01/05 00:59:54;;;;;;;9.13;6.40;;;;;;;;;;5074243;28;20206;-46
2024/01/05 01:02:20;;;;;;;7.83;6.07;;;;;;;;;;5074146;28;20433;-46
2024/01/05 01:04:46;;;;;;;6.60;6.00;;;;;;;;;;5074201;28;20191;-46
2024/01/05 01:07:12;;;;;;;6.83;5.73;;;;;;;;;;5074073;28;20191;-46
2024/01/05 01:09:39;;;;;;;8.33;5.30;;;;;;;;;;5073753;28;20273;-46
2024/01/05 01:12:05;;;;;;;7.57;6.30;;;;;;;;;;5073862;28;20210;-46
2024/01/05 01:14:31;;;;;;;6.80;5.43;;;;;;;;;;5073891;28;20553;-46
2024/01/05 01:16:57;;;;;;;8.07;5.90;;;;;;;;;;5073121;28;20536;-46
2024/01/05 01:19:23;;;;;;;7.33;6.33;;;;;;;;;;5073694;28;20196;-46
2024/01/05 01:21:49;;;;;;;7.50;6.70;;;;;;;;;;5073755;28;20188;-46
2024/01/05 01:24:15;;;;;;;9.77;6.73;;;;;;;;;;5072021;28;20434;-46
2024/01/05 01:26:43;;;;;;;9.03;7.47;;;;;;;;;;5071933;28;20683;-46
2024/01/05 01:29:09;;;;;;;10.63;7.10;;;;;;;;;;5070160;28;20207;-46
2024/01/05 01:31:35;;;;;;;9.47;6.37;;;;;;;;;;5071996;28;20916;-46
2024/01/05 01:34:00;;;;;;;8.07;6.70;;;;;;;;;;5070040;28;20206;-46
2024/01/05 01:36:26;;;;;;;9.00;7.33;;;;;;;;;;5073518;28;20509;-46
2024/01/05 01:38:52;;;;;;;8.47;6.43;;;;;;;;;;5066465;28;20731;-46
2024/01/05 01:41:18;;;;;;;12.07;7.00;;;;;;;;;;5068308;28;20196;-46
2024/01/05 01:43:48;;;;;;;9.70;7.20;;;;;;;;;;5070052;28;20253;-46
2024/01/05 01:46:14;;;;;;;10.93;6.67;;;;;;;;;;5068316;28;20235;-46
2024/01/05 01:48:42;;;;;;;11.23;7.27;;;;;;;;;;5069826;28;20458;-46
2024/01/05 01:51:08;;;;;;;12.90;7.67;;;;;;;;;;5066133;28;21144;-46
2024/01/05 01:53:34;;;;;;;11.20;7.57;;;;;;;;;;5066213;28;20442;-46
2024/01/05 01:56:00;;;;;;;8.67;7.13;;;;;;;;;;5071380;28;20473;-46
2024/01/05 01:58:26;;;;;;;8.67;6.50;;;;;;;;;;5061093;28;20434;-46
2024/01/05 02:00:53;;;;;;;8.87;7.20;;;;;;;;;;5064341;28;20454;-46
2024/01/05 02:03:20;;;;;;;7.73;6.70;;;;;;;;;;5061594;28;20440;-46
2024/01/05 02:05:47;;;;;;;10.17;6.80;;;;;;;;;;5064604;28;20524;-46
2024/01/05 02:08:13;;;;;;;9.77;7.20;;;;;;;;;;5060844;28;20521;-46
2024/01/05 02:10:40;;;;;;;10.13;7.23;;;;;;;;;;5060738;28;20488;-46
2024/01/05 02:13:07;;;;;;;9.00;7.10;;;;;;;;;;5062372;28;20921;-46
2024/01/05 02:15:32;;;;;;;11.70;8.67;;;;;;;;;;5064169;28;20480;-45
2024/01/05 02:18:00;;;;;;;10.13;7.63;;;;;;;;;;5062497;28;20461;-46
2024/01/05 02:20:26;;;;;;;8.20;7.17;;;;;;;;;;5062455;28;20199;-46
2024/01/05 02:22:54;;;;;;;11.90;7.53;;;;;;;;;;5064036;28;20908;-46
2024/01/05 02:25:21;;;;;;;10.70;7.90;;;;;;;;;;5060330;28;20239;-46
2024/01/05 02:27:47;;;;;;;8.50;6.93;;;;;;;;;;5061906;28;20967;-46
2024/01/05 02:30:18;;;;;;;9.77;7.17;;;;;;;;;;5061554;28;20438;-45
2024/01/05 02:32:44;;;;;;;10.37;7.47;;;;;;;;;;5058815;28;20563;-46
2024/01/05 02:35:10;;;;;;;10.87;7.50;;;;;;;;;;5063635;28;20562;-46
2024/01/05 02:37:36;;;;;;;8.63;7.10;;;;;;;;;;5060358;28;20203;-45
2024/01/05 02:40:02;;;;;;;9.23;7.33;;;;;;;;;;5060867;28;20241;-46
2024/01/05 02:42:30;;;;;;;10.07;7.30;;;;;;;;;;5058732;28;20219;-45
2024/01/05 02:44:56;;;;;;;11.97;7.60;;;;;;;;;;5062031;28;20948;-45
2024/01/05 02:47:22;;;;;;;12.37;6.93;;;;;;;;;;5063716;28;20588;-45
2024/01/05 02:49:48;;;;;;;9.70;7.10;;;;;;;;;;5058545;28;20246;-45
2024/01/05 02:52:14;;;;;;;7.73;6.80;;;;;;;;;;5060186;28;20238;-46
2024/01/05 02:54:40;;;;;;;10.40;7.50;;;;;;;;;;5061810;28;20334;-45
2024/01/05 02:57:06;;;;;;;9.43;6.90;;;;;;;;;;5060108;28;20192;-45
2024/01/05 02:59:34;;;;;;;7.90;6.73;;;;;;;;;;5058549;28;20691;-46
2024/01/05 03:02:01;;;;;;;8.80;6.77;;;;;;;;;;5061679;28;20210;-46
2024/01/05 03:04:27;;;;;;;8.83;7.20;;;;;;;;;;5060079;28;20434;-46
2024/01/05 03:06:53;;;;;;;10.10;7.33;;;;;;;;;;5059951;28;21000;-45
2024/01/05 03:09:19;;;;;;;8.50;7.30;;;;;;;;;;5059761;28;20283;-46
2024/01/05 03:11:44;;;;;;;10.40;7.93;;;;;;;;;;5059830;28;20743;-46
2024/01/05 03:14:10;;;;;;;8.00;7.20;;;;;;;;;;5069926;28;20222;-46
2024/01/05 03:16:38;;;;;;;9.90;7.80;;;;;;;;;;5071699;28;20771;-45
2024/01/05 03:19:04;;;;;;;8.37;7.00;;;;;;;;;;5071586;28;20204;-46
2024/01/05 03:21:30;;;;;;;9.60;7.37;;;;;;;;;;5071885;28;20440;-45
2024/01/05 03:23:56;;;;;;;8.60;6.73;;;;;;;;;;5071423;28;20603;-45
2024/01/05 03:26:22;;;;;;;10.00;7.50;;;;;;;;;;5071558;28;20214;-45
2024/01/05 03:28:48;;;;;;;9.33;7.33;;;;;;;;;;5071575;28;20592;-45
2024/01/05 03:31:14;;;;;;;8.83;7.07;;;;;;;;;;5071553;28;20449;-45
2024/01/05 03:33:42;;;;;;;9.37;7.10;;;;;;;;;;5071486;28;20438;-45
2024/01/05 03:36:08;;;;;;;9.37;7.43;;;;;;;;;;5071346;28;20481;-45
2024/01/05 03:38:34;;;;;;;8.30;7.10;;;;;;;;;;5071434;28;20453;-45
2024/01/05 03:41:00;;;;;;;8.80;7.07;;;;;;;;;;5074160;28;20856;-45
2024/01/05 03:43:26;;;;;;;8.30;6.90;;;;;;;;;;5075763;28;20286;-46
2024/01/05 03:45:52;;;;;;;9.37;7.17;;;;;;;;;;5075665;28;20191;-45
2024/01/05 03:48:18;;;;;;;9.00;6.63;;;;;;;;;;5075536;28;20195;-46
2024/01/05 03:50:45;;;;;;;8.73;6.93;;;;;;;;;;5075726;28;20245;-46
2024/01/05 03:53:11;;;;;;;8.50;7.07;;;;;;;;;;5075395;28;20199;-45
2024/01/05 03:55:37;;;;;;;8.70;6.40;;;;;;;;;;5075397;28;20880;-45
2024/01/05 03:58:03;;;;;;;7.30;6.50;;;;;;;;;;5075265;28;20431;-45
2024/01/05 04:00:30;;;;;;;9.93;6.80;;;;;;;;;;5075415;28;20902;-45
2024/01/05 04:02:55;;;;;;;8.17;6.93;;;;;;;;;;5075207;28;20441;-45
2024/01/05 04:05:22;;;;;;;9.90;6.83;;;;;;;;;;5075201;28;20530;-45
2024/01/05 04:07:49;;;;;;;11.90;7.67;;;;;;;;;;5063337;28;20282;-45
2024/01/05 04:10:15;;;;;;;11.30;7.90;;;;;;;;;;5061447;28;20485;-45
2024/01/05 04:12:41;;;;;;;9.20;7.47;;;;;;;;;;5061543;28;20441;-46
2024/01/05 04:15:07;;;;;;;10.77;7.60;;;;;;;;;;5062974;28;20234;-46
2024/01/05 04:17:33;;;;;;;9.27;7.60;;;;;;;;;;5061197;28;20681;-46
2024/01/05 04:19:59;;;;;;;9.57;7.13;;;;;;;;;;5062999;28;20458;-45
2024/01/05 04:22:30;;;;;;;9.37;7.43;;;;;;;;;;5061491;28;20529;-45
2024/01/05 04:24:58;;;;;;;9.37;7.10;;;;;;;;;;5061330;28;20436;-45
2024/01/05 04:27:24;;;;;;;8.73;7.10;;;;;;;;;;5062715;28;20438;-45
2024/01/05 04:29:50;;;;;;;8.30;6.67;;;;;;;;;;5061049;28;20436;-45
2024/01/05 04:32:15;;;;;;;9.23;6.73;;;;;;;;;;5062980;28;20741;-46
2024/01/05 04:34:41;;;;;;;9.37;7.40;;;;;;;;;;5062702;28;20701;-45
2024/01/05 04:37:08;;;;;;;8.30;7.10;;;;;;;;;;5062633;28;20207;-45
2024/01/05 04:39:34;;;;;;;8.00;6.53;;;;;;;;;;5061007;28;20207;-45
2024/01/05 04:42:03;;;;;;;8.03;6.37;;;;;;;;;;5061003;28;20430;-45
2024/01/05 04:44:29;;;;;;;9.30;7.17;;;;;;;;;;5061520;28;20239;-46
2024/01/05 04:46:55;;;;;;;9.60;7.03;;;;;;;;;;5062526;28;20478;-45
2024/01/05 04:49:20;;;;;;;7.83;6.60;;;;;;;;;;5062381;28;20864;-45
2024/01/05 04:51:47;;;;;;;10.30;7.43;;;;;;;;;;5061476;28;20196;-45
2024/01/05 04:54:12;;;;;;;9.30;6.60;;;;;;;;;;5060552;28;20733;-45
2024/01/05 04:56:38;;;;;;;8.27;6.80;;;;;;;;;;5062271;28;20516;-45
2024/01/05 04:59:06;;;;;;;10.77;7.23;;;;;;;;;;5060534;28;20566;-45
2024/01/05 05:01:32;;;;;;;9.50;6.77;;;;;;;;;;5062354;28;20211;-45
2024/01/05 05:03:58;;;;;;;8.37;6.40;;;;;;;;;;5060570;28;20436;-45
2024/01/05 05:06:24;;;;;;;7.90;6.70;;;;;;;;;;5060395;28;20551;-46
2024/01/05 05:08:50;;;;;;;7.07;5.90;;;;;;;;;;5060217;28;20214;-45
2024/01/05 05:11:16;;;;;;;7.07;6.37;;;;;;;;;;5060326;28;20289;-45
2024/01/05 05:13:42;;;;;;;8.03;6.40;;;;;;;;;;5061896;28;20618;-45
2024/01/05 05:16:09;;;;;;;10.50;7.53;;;;;;;;;;5073638;28;20508;-46
2024/01/05 05:18:35;;;;;;;10.00;6.57;;;;;;;;;;5073898;28;20203;-46
2024/01/05 05:21:01;;;;;;;8.27;6.93;;;;;;;;;;5073860;28;20875;-45
2024/01/05 05:23:27;;;;;;;9.57;7.17;;;;;;;;;;5073749;28;20630;-46
2024/01/05 05:25:53;;;;;;;8.60;7.17;;;;;;;;;;5073800;28;20992;-46
2024/01/05 05:28:19;;;;;;;9.60;7.60;;;;;;;;;;5073766;28;20286;-45
2024/01/05 05:30:45;;;;;;;9.50;7.40;;;;;;;;;;5073811;28;20199;-45
2024/01/05 05:33:12;;;;;;;10.97;7.60;;;;;;;;;;5073565;28;20669;-45
2024/01/05 05:35:38;;;;;;;11.20;7.27;;;;;;;;;;5073540;28;20216;-45
2024/01/05 05:38:04;;;;;;;9.37;7.93;;;;;;;;;;5073402;28;20438;-45
2024/01/05 05:40:30;;;;;;;8.70;7.73;;;;;;;;;;5073663;28;20642;-45
2024/01/05 05:42:56;;;;;;;10.47;7.60;;;;;;;;;;5073676;28;20199;-45
2024/01/05 05:45:22;;;;;;;9.60;7.50;;;;;;;;;;5073208;28;20210;-45
2024/01/05 05:47:48;;;;;;;8.23;7.20;;;;;;;;;;5073263;28;20661;-45
2024/01/05 05:50:15;;;;;;;8.70;7.80;;;;;;;;;;5073298;28;20429;-46
2024/01/05 05:52:43;;;;;;;10.77;7.57;;;;;;;;;;5073311;28;20203;-46
2024/01/05 05:55:12;;;;;;;11.63;8.00;;;;;;;;;;5072941;28;20501;-45
2024/01/05 05:57:38;;;;;;;8.87;7.47;;;;;;;;;;5073179;28;20422;-46
2024/01/05 06:00:05;;;;;;;10.40;7.13;;;;;;;;;;5072880;28;20462;-45
2024/01/05 06:02:31;;;;;;;11.73;8.43;;;;;;;;;;5072834;28;20433;-46
2024/01/05 06:04:57;;;;;;;10.77;7.97;;;;;;;;;;5072990;28;20488;-46
2024/01/05 06:07:25;;;;;;;8.27;7.47;;;;;;;;;;5072567;28;20276;-46
2024/01/05 06:09:51;;;;;;;9.40;8.40;;;;;;;;;;5072681;28;20536;-46
2024/01/05 06:12:17;;;;;;;11.67;8.50;;;;;;;;;;5072628;28;20549;-45
2024/01/05 06:14:44;;;;;;;10.03;8.30;;;;;;;;;;5072635;28;20724;-45
2024/01/05 06:17:10;;;;;;;8.87;7.90;;;;;;;;;;5072473;28;20530;-46
2024/01/05 06:19:36;;;;;;;8.33;7.20;;;;;;;;;;5073028;28;20940;-45
2024/01/05 06:22:02;;;;;;;10.87;7.57;;;;;;;;;;5072630;28;20282;-45
2024/01/05 06:24:30;;;;;;;8.40;7.40;;;;;;;;;;5072428;28;20253;-45
2024/01/05 06:26:56;;;;;;;10.37;8.43;;;;;;;;;;5072485;28;20596;-45
2024/01/05 06:29:21;;;;;;;8.77;7.53;;;;;;;;;;5072299;28;20754;-45
2024/01/05 06:31:47;;;;;;;8.67;7.33;;;;;;;;;;5070576;28;20203;-45
2024/01/05 06:34:13;;;;;;;8.97;7.67;;;;;;;;;;5058719;28;20245;-45
2024/01/05 06:36:39;;;;;;;10.03;7.70;;;;;;;;;;5056798;28;20266;-46
2024/01/05 06:39:05;;;;;;;10.13;6.90;;;;;;;;;;5058583;28;20196;-45
2024/01/05 06:41:33;;;;;;;8.30;7.07;;;;;;;;;;5060216;28;20503;-45
2024/01/05 06:43:59;;;;;;;8.33;6.80;;;;;;;;;;5058746;28;20442;-45
2024/01/05 06:46:25;;;;;;;8.83;7.60;;;;;;;;;;5058391;28;20441;-45
2024/01/05 06:48:51;;;;;;;8.10;7.03;;;;;;;;;;5058363;28;20199;-46
2024/01/05 06:51:17;;;;;;;8.83;7.30;;;;;;;;;;5060014;28;20202;-46
2024/01/05 06:53:43;;;;;;;8.60;7.30;;;;;;;;;;5060424;28;21083;-47
2024/01/05 06:56:10;;;;;;;9.70;7.80;;;;;;;;;;5060132;28;20665;-47
2024/01/05 06:58:38;;;;;;;9.53;8.07;;;;;;;;;;5058300;28;20438;-47
2024/01/05 07:01:04;;;;;;;8.40;7.30;;;;;;;;;;5058444;28;20904;-47
2024/01/05 07:03:30;;;;;;;9.17;7.30;;;;;;;;;;5060057;28;20457;-47
2024/01/05 07:05:56;;;;;;;11.83;8.70;;;;;;;;;;5058392;28;20517;-47
2024/01/05 07:08:22;;;;;;;10.40;9.13;;;;;;;;;;5057964;28;20520;-47
2024/01/05 07:10:48;;;;;;;8.90;8.00;;;;;;;;;;5058079;28;20231;-47
2024/01/05 07:13:14;;;;;;;9.73;7.87;;;;;;;;;;5058026;28;20571;-47
2024/01/05 07:15:42;;;;;;;10.40;8.47;;;;;;;;;;5057182;28;20222;-47
2024/01/05 07:18:08;;;;;;;10.43;7.90;;;;;;;;;;5057646;28;20277;-47
2024/01/05 07:20:34;;;;;;;10.47;9.00;;;;;;;;;;5056456;28;20834;-48
2024/01/05 07:23:00;;;;;;;11.37;8.50;;;;;;;;;;5057856;28;20492;-47
2024/01/05 07:25:26;;;;;;;9.43;7.97;;;;;;;;;;5057828;28;20616;-47
2024/01/05 07:27:52;;;;;;;9.10;8.10;;;;;;;;;;5057726;28;20437;-47
2024/01/05 07:30:18;;;;;;;10.53;8.23;;;;;;;;;;5057667;28;20241;-47
2024/01/05 07:32:46;;;;;;;10.53;8.77;;;;;;;;;;5057961;28;20445;-47
2024/01/05 07:35:12;;;;;;;9.50;8.53;;;;;;;;;;5059136;28;20306;-47
2024/01/05 07:37:38;;;;;;;11.87;8.97;;;;;;;;;;5059123;28;20453;-47
2024/01/05 07:40:05;;;;;;;10.53;8.50;;;;;;;;;;5057789;28;20434;-47
2024/01/05 07:42:31;;;;;;;9.83;8.77;;;;;;;;;;5057544;28;20249;-47
2024/01/05 07:45:00;;;;;;;11.13;9.33;;;;;;;;;;5057616;28;20434;-47
2024/01/05 07:47:26;;;;;;;13.37;8.73;;;;;;;;;;5057536;28;20438;-47
2024/01/05 07:49:53;;;;;;;9.47;8.23;;;;;;;;;;5057515;28;20812;-48
2024/01/05 07:52:19;;;;;;;10.07;8.80;;;;;;;;;;5058674;28;20446;-47
2024/01/05 07:54:46;;;;;;;10.00;8.37;;;;;;;;;;5057578;28;20517;-47
2024/01/05 07:57:12;;;;;;;9.20;8.20;;;;;;;;;;5058913;28;20791;-47
2024/01/05 07:59:38;;;;;;;8.97;7.80;;;;;;;;;;5057881;28;20499;-47
2024/01/05 08:02:04;;;;;;;10.40;7.73;;;;;;;;;;5057720;28;20434;-47
2024/01/05 08:04:30;;;;;;;11.70;8.27;;;;;;;;;;5059634;28;20670;-47
2024/01/05 08:06:58;;;;;;;10.33;8.57;;;;;;;;;;5057614;28;20437;-47
2024/01/05 08:09:24;;;;;;;11.17;8.60;;;;;;;;;;5057619;28;20980;-47
2024/01/05 08:11:50;;;;;;;12.40;8.80;;;;;;;;;;5057153;28;20474;-47
2024/01/05 08:14:16;;;;;;;10.87;8.70;;;;;;;;;;5059359;28;20670;-48
2024/01/05 08:16:42;;;;;;;10.87;8.83;;;;;;;;;;5057725;28;20235;-47
2024/01/05 08:19:08;;;;;;;10.83;8.77;;;;;;;;;;5057649;28;20495;-47
2024/01/05 08:21:34;;;;;;;8.93;8.03;;;;;;;;;;5057344;28;20203;-47
2024/01/05 08:24:02;;;;;;;11.63;9.17;;;;;;;;;;5058612;28;20444;-47
2024/01/05 08:26:28;;;;;;;10.40;8.87;;;;;;;;;;5060636;28;20207;-48
2024/01/05 08:28:54;;;;;;;11.30;8.43;;;;;;;;;;5062900;28;20804;-47
2024/01/05 08:31:20;;;;;;;11.43;8.00;;;;;;;;;;5060919;28;20264;-47
2024/01/05 08:33:46;;;;;;;10.30;8.17;;;;;;;;;;5061313;28;20298;-47
2024/01/05 08:36:12;;;;;;;11.57;9.00;;;;;;;;;;5061078;28;20314;-47
2024/01/05 08:38:38;;;;;;;9.57;8.17;;;;;;;;;;5059265;28;20437;-47
2024/01/05 08:41:05;;;;;;;9.87;8.47;;;;;;;;;;5062743;28;20442;-47
2024/01/05 08:43:31;;;;;;;9.73;8.20;;;;;;;;;;5060917;28;20207;-47
2024/01/05 08:45:58;;;;;;;10.03;8.73;;;;;;;;;;5060954;28;20429;-47
2024/01/05 08:48:24;;;;;;;8.57;7.67;;;;;;;;;;5060758;28;20195;-47
2024/01/05 08:50:51;;;;;;;9.77;8.67;;;;;;;;;;5060784;28;20449;-47
2024/01/05 08:53:21;;;;;;;9.30;8.00;;;;;;;;;;5060272;28;20276;-48
2024/01/05 08:55:46;;;;;;;11.20;9.27;;;;;;;;;;5060919;28;21091;-47
2024/01/05 08:58:14;;;;;;;8.93;8.00;;;;;;;;;;5060639;28;20453;-47
2024/01/05 09:00:40;;;;;;;8.90;7.63;;;;;;;;;;5060711;28;20218;-47
2024/01/05 09:03:06;;;;;;;9.00;8.10;;;;;;;;;;5062385;28;20844;-48
2024/01/05 09:05:32;;;;;;;9.63;8.37;;;;;;;;;;5060461;28;20670;-47
2024/01/05 09:07:58;;;;;;;10.07;8.47;;;;;;;;;;5062274;28;20437;-47
2024/01/05 09:10:24;;;;;;;10.37;8.97;;;;;;;;;;5072259;28;20297;-46
2024/01/05 09:12:50;;;;;;;9.90;8.07;;;;;;;;;;5074117;28;20363;-48
2024/01/05 09:15:17;;;;;;;11.57;9.00;;;;;;;;;;5074123;28;20572;-48
2024/01/05 09:17:43;;;;;;;11.20;9.43;;;;;;;;;;5074169;28;20215;-47
2024/01/05 09:20:12;;;;;;;13.10;8.63;;;;;;;;;;5074040;28;20440;-47
2024/01/05 09:22:38;;;;;;;10.37;8.70;;;;;;;;;;5073809;28;20434;-47
2024/01/05 09:25:04;;;;;;;11.17;8.87;;;;;;;;;;5073835;28;20453;-47
2024/01/05 09:27:30;;;;;;;12.30;8.60;;;;;;;;;;5073928;28;20199;-47
2024/01/05 09:29:56;;;;;;;9.20;7.57;;;;;;;;;;5073859;28;20445;-47
2024/01/05 09:32:24;;;;;;;12.23;8.13;;;;;;;;;;5073907;28;20199;-47
2024/01/05 09:34:50;;;;;;;9.07;8.10;;;;;;;;;;5073740;28;20446;-48
2024/01/05 09:37:16;;;;;;;10.03;7.47;;;;;;;;;;5073467;28;20950;-47
2024/01/05 09:39:42;;;;;;;7.63;6.50;;;;;;;;;;5073575;28;20196;-48
2024/01/05 09:42:09;;;;;;;7.27;6.03;;;;;;;;;;5073713;28;20238;-48
2024/01/05 09:44:36;;;;;;;7.93;6.83;;;;;;;;;;5073561;28;20452;-48
2024/01/05 09:47:02;;;;;;;7.07;6.17;;;;;;;;;;5073725;28;20473;-48
2024/01/05 09:49:31;;;;;;;7.13;6.40;;;;;;;;;;5073607;28;20430;-47
2024/01/05 09:51:57;;;;;;;6.50;5.83;;;;;;;;;;5073526;28;20438;-48
2024/01/05 09:54:23;;;;;;;7.10;6.30;;;;;;;;;;5073409;28;20446;-51
2024/01/05 09:56:50;;;;;;;6.63;5.93;;;;;;;;;;5069137;28;20503;-47
2024/01/05 09:59:17;;;;;;;6.57;5.97;;;;;;;;;;5071100;28;20450;-47
2024/01/05 10:01:43;;;;;;;7.80;6.00;;;;;;;;;;5073076;28;20472;-47
2024/01/05 10:04:09;;;;;;;6.13;5.53;;;;;;;;;;5073150;28;20422;-47
2024/01/05 10:06:36;;;;;;;6.07;5.40;;;;;;;;;;5072864;28;20472;-47
2024/01/05 10:09:03;;;;;;;5.90;5.23;;;;;;;;;;5072945;28;20491;-47
2024/01/05 10:11:29;;;;;;;5.63;5.03;;;;;;;;;;5072783;28;20484;-46
2024/01/05 10:13:56;;;;;;;5.80;5.20;;;;;;;;;;5072846;28;20441;-47
2024/01/05 10:16:26;;;;;;;6.80;5.80;;;;;;;;;;5068876;28;20481;-48
2024/01/05 10:18:52;;;;;;;5.73;5.13;;;;;;;;;;5073079;28;20438;-47
2024/01/05 10:21:23;;;;;;;5.73;5.10;;;;;;;;;;5072708;28;20537;-47
2024/01/05 10:23:50;;;;;;;5.17;4.67;;;;;;;;;;5072699;28;20279;-47
2024/01/05 10:26:17;;;;;;;5.60;5.10;;;;;;;;;;5072694;28;20444;-47
2024/01/05 10:28:43;;;;;;;5.70;4.93;;;;;;;;;;5072666;28;20426;-47
2024/01/05 10:31:12;;;;;;;5.97;5.03;;;;;;;;;;5072554;28;20515;-46
2024/01/05 10:33:48;;;;;;;5.80;5.13;;;;;;;;;;5072516;28;20249;-48
2024/01/05 10:36:14;;;;;;;5.30;4.70;;;;;;;;;;5072328;28;20978;-48
2024/01/05 10:38:42;;;;;;;5.87;5.37;;;;;;;;;;5072281;28;20449;-48
2024/01/05 10:41:09;;;;;;;6.57;5.13;;;;;;;;;;5072455;28;20369;-47
2024/01/05 10:43:36;;;;;;;5.53;5.03;;;;;;;;;;5072060;28;20446;-47
2024/01/05 10:46:02;;;;;;;6.03;5.43;;;;;;;;;;5072141;28;20993;-47
2024/01/05 10:48:29;;;;;;;6.40;5.80;;;;;;;;;;5072194;28;20301;-47
2024/01/05 10:50:56;;;;;;;6.17;5.67;;;;;;;;;;5071163;28;20590;-47
2024/01/05 10:53:22;;;;;;;5.40;4.73;;;;;;;;;;5071947;28;20199;-47
2024/01/05 10:55:48;;;;;;;6.40;5.73;;;;;;;;;;5071828;28;20226;-48
2024/01/05 10:58:16;;;;;;;5.83;5.33;;;;;;;;;;5072091;28;20283;-47
2024/01/05 11:00:42;;;;;;;5.70;5.10;;;;;;;;;;5071661;28;20206;-47
2024/01/05 11:03:10;;;;;;;5.47;4.97;;;;;;;;;;5071852;28;20200;-47
2024/01/05 11:05:38;;;;;;;5.43;4.93;;;;;;;;;;5071795;28;20204;-46
2024/01/05 11:08:04;;;;;;;7.53;6.83;;;;;;;;;;5071840;28;20230;-46
2024/01/05 11:10:38;;;;;;;6.20;5.13;;;;;;;;;;5071633;28;20547;-46
2024/01/05 11:13:16;;;;;;;7.70;6.90;;;;;;;;;;5071791;28;20474;-46
2024/01/05 11:15:59;;;;;;;6.53;5.87;;;;;;;;;;5071625;28;20232;-47
2024/01/05 11:18:34;;;;;;;7.53;6.70;;;;;;;;;;5071505;28;20870;-47
2024/01/05 11:21:05;;;;;;;11.20;8.10;;;;;;;;;;5071914;28;20214;-47
2024/01/05 11:23:32;;;;;;;7.57;5.80;;;;;;;;;;5071564;28;20227;-47
2024/01/05 11:25:58;;;;;;;6.40;5.73;;;;;;;;;;5071647;28;20438;-47
2024/01/05 11:28:34;;;;;;;6.40;5.60;;;;;;;;;;5071521;28;20438;-47
2024/01/05 11:31:02;;;;;;;7.63;5.97;;;;;;;;;;5071705;28;20437;-48
2024/01/05 11:33:42;;;;;;;6.23;5.63;;;;;;;;;;5071496;28;20873;-48
2024/01/05 11:36:08;;;;;;;8.53;7.37;;;;;;;;;;5065792;28;20473;-48
2024/01/05 11:38:34;;;;;;;8.53;7.63;;;;;;;;;;5061774;28;20456;-48
2024/01/05 11:41:15;;;;;;;8.33;7.37;;;;;;;;;;5060577;28;20245;-48
2024/01/05 11:43:41;;;;;;;7.80;6.97;;;;;;;;;;5061917;28;20565;-48
2024/01/05 11:46:08;;;;;;;10.43;7.70;;;;;;;;;;5061264;28;20438;-48
2024/01/05 11:48:51;;;;;;;7.50;6.70;;;;;;;;;;5059469;28;20227;-48
2024/01/05 11:51:17;;;;;;;7.87;7.07;;;;;;;;;;5059845;28;20438;-48
2024/01/05 11:53:44;;;;;;;6.93;6.33;;;;;;;;;;5061001;28;20191;-48
2024/01/05 11:56:11;;;;;;;7.83;6.87;;;;;;;;;;5061478;28;20854;-48
2024/01/05 11:58:43;;;;;;;34.90;23.37;;;;;;;;;;5062350;28;20192;-48
2024/01/05 12:01:11;;;;;;;8.87;8.07;;;;;;;;;;5061429;28;20461;-48
2024/01/05 12:03:38;;;;;;;6.47;5.30;;;;;;;;;;5065608;28;20199;-48
2024/01/05 12:06:05;;;;;;;5.40;4.90;;;;;;;;;;5064565;28;20203;-48
2024/01/05 12:08:31;;;;;;;6.33;5.67;;;;;;;;;;5063749;28;20195;-48
2024/01/05 12:10:57;;;;;;;5.63;5.13;;;;;;;;;;5065715;28;20223;-48
2024/01/05 12:13:26;;;;;;;5.67;5.17;;;;;;;;;;5064489;28;20441;-48
2024/01/05 12:15:53;;;;;;;5.30;4.67;;;;;;;;;;5063321;28;20342;-48
2024/01/05 12:18:26;;;;;;;4.70;4.30;;;;;;;;;;5065317;28;20492;-48
2024/01/05 12:20:53;;;;;;;5.67;5.17;;;;;;;;;;5065450;28;20203;-48
2024/01/05 12:23:19;;;;;;;5.83;5.27;;;;;;;;;;5062853;28;20952;-48
2024/01/05 12:25:46;;;;;;;6.00;5.40;;;;;;;;;;5063627;28;20426;-48
2024/01/05 12:28:14;;;;;;;6.13;5.30;;;;;;;;;;5065231;28;20434;-49
2024/01/05 12:30:41;;;;;;;6.37;5.63;;;;;;;;;;5065337;28;20202;-48
2024/01/05 12:33:07;;;;;;;7.13;6.13;;;;;;;;;;5064550;28;20435;-47
2024/01/05 12:38:25;;;;;;;6.47;5.87;;;;;;;;;;5067651;28;20219;-46
2024/01/05 12:40:51;;;;;;;5.80;5.30;;;;;;;;;;5074658;28;20560;-47
2024/01/05 12:43:18;;;;;;;6.37;5.57;;;;;;;;;;5074310;28;20239;-48
2024/01/05 12:45:47;;;;;;;6.43;5.83;;;;;;;;;;5074284;28;20436;-48
2024/01/05 12:48:13;;;;;;;7.27;6.10;;;;;;;;;;5074209;28;20283;-49
2024/01/05 12:50:40;;;;;;;8.87;6.57;;;;;;;;;;5074208;28;20484;-48
2024/01/05 12:53:16;;;;;;;6.90;6.27;;;;;;;;;;5074241;28;20430;-48
2024/01/05 12:55:42;;;;;;;9.73;6.37;;;;;;;;;;5074167;28;20522;-48
2024/01/05 12:58:08;;;;;;;8.03;6.93;;;;;;;;;;5074253;28;20874;-48
2024/01/05 13:00:40;;;;;;;7.63;6.70;;;;;;;;;;5074135;28;20538;-48
2024/01/05 13:03:12;;;;;;;8.20;7.30;;;;;;;;;;5074293;28;20442;-48
2024/01/05 13:05:38;;;;;;;9.53;7.80;;;;;;;;;;5074010;28;20188;-48
2024/01/05 13:08:06;;;;;;;9.67;7.53;;;;;;;;;;5074037;28;20223;-48
2024/01/05 13:10:33;;;;;;;11.13;7.10;;;;;;;;;;5074005;28;20239;-48
2024/01/05 13:12:59;;;;;;;8.13;7.33;;;;;;;;;;5073260;28;20436;-48
2024/01/05 13:15:25;;;;;;;8.87;7.77;;;;;;;;;;5073986;28;20474;-48
2024/01/05 13:17:51;;;;;;;10.37;7.83;;;;;;;;;;5073699;28;20335;-48
2024/01/05 13:20:19;;;;;;;9.03;8.13;;;;;;;;;;5074204;28;20203;-48
2024/01/05 13:22:45;;;;;;;13.07;8.97;;;;;;;;;;5073812;28;20804;-49
2024/01/05 13:25:12;;;;;;;9.67;8.20;;;;;;;;;;5073773;28;20952;-48
2024/01/05 13:27:41;;;;;;;13.50;9.07;;;;;;;;;;5073549;28;20200;-48
2024/01/05 13:30:09;;;;;;;16.23;9.50;;;;;;;;;;5073743;28;20436;-48
2024/01/05 13:32:36;;;;;;;9.17;7.73;;;;;;;;;;5073474;28;20449;-48
2024/01/05 13:35:02;;;;;;;8.60;7.70;;;;;;;;;;5073630;28;20286;-48
2024/01/05 13:37:28;;;;;;;10.10;9.10;;;;;;;;;;5073520;28;20450;-49
2024/01/05 13:39:54;;;;;;;13.03;8.70;;;;;;;;;;5073246;28;20441;-49
2024/01/05 13:42:21;;;;;;;10.23;8.53;;;;;;;;;;5073349;28;20542;-48
2024/01/05 13:44:48;;;;;;;10.33;8.60;;;;;;;;;;5073400;28;20696;-48
2024/01/05 13:47:14;;;;;;;10.30;8.67;;;;;;;;;;5073410;28;20426;-49
2024/01/05 13:49:40;;;;;;;9.27;7.87;;;;;;;;;;5072999;28;20503;-48
2024/01/05 13:52:06;;;;;;;9.27;7.63;;;;;;;;;;5072846;28;20210;-48
2024/01/05 13:54:33;;;;;;;7.83;6.17;;;;;;;;;;5073078;28;20730;-48
2024/01/05 13:56:59;;;;;;;7.40;6.57;;;;;;;;;;5072614;28;20477;-49
2024/01/05 13:59:27;;;;;;;7.57;6.87;;;;;;;;;;5072311;28;20203;-49
2024/01/05 14:01:53;;;;;;;8.20;6.50;;;;;;;;;;5072646;28;20203;-49
2024/01/05 14:04:20;;;;;;;8.60;7.13;;;;;;;;;;5073000;28;20433;-49
2024/01/05 14:06:45;;;;;;;8.90;7.40;;;;;;;;;;5073115;28;20200;-49
2024/01/05 14:09:11;;;;;;;8.40;7.50;;;;;;;;;;5069722;28;20727;-49
2024/01/05 14:11:37;;;;;;;9.20;8.30;;;;;;;;;;5071838;28;20266;-50
2024/01/05 14:14:03;;;;;;;8.67;7.67;;;;;;;;;;5072358;28;20202;-49
2024/01/05 14:16:32;;;;;;;9.03;7.73;;;;;;;;;;5072408;28;20293;-50
2024/01/05 14:18:58;;;;;;;8.90;7.23;;;;;;;;;;5072365;28;20261;-49
2024/01/05 14:21:25;;;;;;;8.10;7.30;;;;;;;;;;5072294;28;20241;-49
2024/01/05 14:23:51;;;;;;;9.13;7.43;;;;;;;;;;5072080;28;20222;-49
2024/01/05 14:26:18;;;;;;;8.23;7.23;;;;;;;;;;5072447;28;20199;-50
2024/01/05 14:28:44;;;;;;;7.67;6.87;;;;;;;;;;5072351;28;20203;-50
2024/01/05 14:31:10;;;;;;;7.60;6.80;;;;;;;;;;5072063;28;20290;-49
2024/01/05 14:33:37;;;;;;;7.70;6.70;;;;;;;;;;5071841;28;20235;-50
2024/01/05 14:36:04;;;;;;;8.57;7.00;;;;;;;;;;5072214;28;20223;-49
2024/01/05 14:38:30;;;;;;;7.73;7.03;;;;;;;;;;5070437;28;20199;-49
2024/01/05 14:40:56;;;;;;;8.37;7.47;;;;;;;;;;5071589;28;20227;-49